WetterOnline ( https://www.wetteronline.de )

Wetter aktuell Eichenbühl

Aktuelles Wetter: Michelstadt-Vielbrunn (455m)

6-stündlich | Neueste Meldungen
Ortszeit Temperatur Wetter
Mi, 17.07. 20:00 21.6° C wolkenlos
Mi, 17.07. 14:00 21.2° C wolkig
Mi, 17.07. 8:00 13.6° C leicht bewölkt
Mi, 17.07. 2:00 15.0° C wolkig
Di, 16.07. 20:00 20.1° C leicht bewölkt
Di, 16.07. 14:00 18.9° C wolkenlos
Di, 16.07. 8:00 12.6° C wolkenlos
Di, 16.07. 2:00 10.5° C wolkenlos
Ortszeit Temperatur Wetter
Do, 18.07. 0:30 15.9° C leicht bewölkt
Do, 18.07. 0:20 15.9° C leicht bewölkt
Do, 18.07. 0:10 16.1° C leicht bewölkt
Do, 18.07. 0:00 16.5° C leicht bewölkt
Mi, 17.07. 23:50 16.5° C leicht bewölkt
Mi, 17.07. 23:40 16.8° C leicht bewölkt
Mi, 17.07. 23:30 17.0° C leicht bewölkt
Mi, 17.07. 23:00 18.0° C wolkenlos
Mi, 17.07. 22:30 17.8° C wolkenlos
Mi, 17.07. 22:00 18.2° C wolkenlos
Mi, 17.07. 21:30 19.1° C wolkenlos
Ortszeit Relative Feuchte Sichtweite
Mi, 17.07. 20:00 49% 40 km
Mi, 17.07. 14:00 60% 35 km
Mi, 17.07. 8:00 91% 20 km
Mi, 17.07. 2:00 74% 28 km
Di, 16.07. 20:00 53% 40 km
Di, 16.07. 14:00 56% 30 km
Di, 16.07. 8:00 76% 21 km
Di, 16.07. 2:00 91% 15 km
Ortszeit Relative Feuchte Sichtweite
Do, 18.07. 0:30 71% 30 km
Do, 18.07. 0:20 71% -
Do, 18.07. 0:10 71% -
Do, 18.07. 0:00 69% 35 km
Mi, 17.07. 23:50 69% -
Mi, 17.07. 23:40 67% -
Mi, 17.07. 23:30 66% 35 km
Mi, 17.07. 23:00 61% 35 km
Mi, 17.07. 22:30 62% 35 km
Mi, 17.07. 22:00 59% 27 km
Mi, 17.07. 21:30 55% 35 km
Ortszeit Niederschlagsmenge Niederschlagsart
Mi, 17.07. 20:00 0.0 l/m2 in 12 Std. -
Mi, 17.07. 14:00 0.0 l/m2 in 6 Std. -
Mi, 17.07. 8:00 0.0 l/m2 in 12 Std. -
Mi, 17.07. 2:00 0.0 l/m2 in 6 Std. -
Di, 16.07. 20:00 0.0 l/m2 in 12 Std. -
Di, 16.07. 14:00 0.0 l/m2 in 6 Std. -
Di, 16.07. 8:00 0.0 l/m2 in 12 Std. -
Di, 16.07. 2:00 0.0 l/m2 in 6 Std. -
Ortszeit Niederschlagsmenge Niederschlagsart
Do, 18.07. 0:30 0.0 l/m2 in 1 Std. -
Do, 18.07. 0:20 keine Meldung -
Do, 18.07. 0:10 keine Meldung -
Do, 18.07. 0:00 0.0 l/m2 in 1 Std. -
Mi, 17.07. 23:50 keine Meldung -
Mi, 17.07. 23:40 keine Meldung -
Mi, 17.07. 23:30 0.0 l/m2 in 1 Std. -
Mi, 17.07. 23:00 0.0 l/m2 in 1 Std. -
Mi, 17.07. 22:30 0.0 l/m2 in 1 Std. -
Mi, 17.07. 22:00 0.1 l/m2 in 1 Std. Sprühregen
Mi, 17.07. 21:30 0.0 l/m2 in 1 Std. -
Ortszeit Stärke Spitze Richtung
km/h Bft. km/h Grad Sektor
Mi, 17.07. 20:00 7 2 25 320° NW
Mi, 17.07. 14:00 9 2 24 340° N
Mi, 17.07. 8:00 7 2 14 110° O
Mi, 17.07. 2:00 7 2 14 260° W
Di, 16.07. 20:00 7 2 22 310° NW
Di, 16.07. 14:00 9 2 24 270° W
Di, 16.07. 8:00 7 2 18 330° NW
Di, 16.07. 2:00 13 3 26 320° NW
Ortszeit Stärke Spitze Richtung
km/h Bft. km/h Grad Sektor
Do, 18.07. 0:30 7 2 7 80° O
Do, 18.07. 0:20 7 2 - 80° O
Do, 18.07. 0:10 6 1 - 20° N
Do, 18.07. 0:00 7 2 11 330° NW
Mi, 17.07. 23:50 7 2 - 330° NW
Mi, 17.07. 23:40 7 2 - 320° NW
Mi, 17.07. 23:30 4 1 7 340° N
Mi, 17.07. 23:00 7 2 7 30° NO
Mi, 17.07. 22:30 6 1 6 10° N
Mi, 17.07. 22:00 6 1 9 350° N
Mi, 17.07. 21:30 7 2 11 320° NW
Ortszeit Untergrenze Bedeckung Gattung
total tief tief mittel hoch
Mi, 17.07. 20:00 - 0/8 0/8 - - -
Mi, 17.07. 14:00 1110 m 7/8 4/8 - - -
Mi, 17.07. 8:00 10500 m 6/8 0/8 - - -
Mi, 17.07. 2:00 7800 m 8/8 0/8 - - -
Di, 16.07. 20:00 9000 m 8/8 0/8 - - -
Di, 16.07. 14:00 - 0/8 0/8 - - -
Di, 16.07. 8:00 - 0/8 0/8 - - -
Di, 16.07. 2:00 - 0/8 0/8 - - -
Ortszeit Bedeckungsgrad in Achtel und Wolkenuntergrenze
Do, 18.07. 0:30 3(9000m)
Do, 18.07. 0:20 3(9000m)
Do, 18.07. 0:10 3(10500m)
Do, 18.07. 0:00 1(9000m) 3(10500m)
Mi, 17.07. 23:50 1(9000m) 3(10500m)
Mi, 17.07. 23:40 2(9000m) 5(9000m)
Mi, 17.07. 23:30 5(9000m) 6(9000m)
Mi, 17.07. 23:00 keine Wolken
Mi, 17.07. 22:30 keine Wolken
Mi, 17.07. 22:00 keine Wolken
Mi, 17.07. 21:30 keine Wolken
Ortszeit Luftdruck NN (hPa) Tendenz (hPa in 3 Std.)
Mi, 17.07. 20:00 1012 - 0,8
Mi, 17.07. 14:00 1013 - 0,4
Mi, 17.07. 8:00 1015 - 0,3
Mi, 17.07. 2:00 1016 - 0,1
Di, 16.07. 20:00 1016 - 0,5
Di, 16.07. 14:00 1017 - 0,4
Di, 16.07. 8:00 1019 + 0,3
Di, 16.07. 2:00 1019 + 0,6
Ortszeit Luftdruck NN (hPa) Tendenz (hPa in 3 Std.)
Do, 18.07. 0:30 1013 + 0,3
Do, 18.07. 0:20 1013 keine Meldung
Do, 18.07. 0:10 1013 keine Meldung
Do, 18.07. 0:00 1013 + 0,4
Mi, 17.07. 23:50 1013 keine Meldung
Mi, 17.07. 23:40 1013 keine Meldung
Mi, 17.07. 23:30 1013 + 0,3
Mi, 17.07. 23:00 1013 + 0,3
Mi, 17.07. 22:30 1013 + 0,2
Mi, 17.07. 22:00 1013 0,0
Mi, 17.07. 21:30 1012 - 0,3
Ortszeit Schneehöhe (cm)
Mi, 17.07. 20:00 -
Mi, 17.07. 14:00 -
Mi, 17.07. 8:00 -
Mi, 17.07. 2:00 -
Di, 16.07. 20:00 -
Di, 16.07. 14:00 -
Di, 16.07. 8:00 -
Di, 16.07. 2:00 -
Ortszeit Schneehöhe (cm)
Do, 18.07. 0:30 -
Do, 18.07. 0:20 -
Do, 18.07. 0:10 -
Do, 18.07. 0:00 -
Mi, 17.07. 23:50 -
Mi, 17.07. 23:40 -
Mi, 17.07. 23:30 -
Mi, 17.07. 23:00 -
Mi, 17.07. 22:30 -
Mi, 17.07. 22:00 -
Mi, 17.07. 21:30 -
Link zu dieser Seite / Seite empfehlen

Das Wetter in ...